Time;durP1;ratioP1;P1;durP2;ratioP2;P2;SDS_P1;SDS_P2;PMS_P1;PMS_P2;Temp;Humidity;BMP_temperature;BMP_pressure;BME280_temperature;BME280_humidity;BME280_pressure;Samples;Min_cycle;Max_cycle;Signal;HPM_P1;HPM_P2
2022/03/19 00:02:19;;;;;;;49.80;32.63;;;7.80;99.90;;;;;;5112067;28;20496;-68
2022/03/19 00:04:46;;;;;;;65.63;35.80;;;7.90;1.00;;;;;;5112103;28;20702;-68
2022/03/19 00:07:14;;;;;;;58.70;35.20;;;7.90;18.30;;;;;;5112651;28;20482;-68
2022/03/19 00:09:41;;;;;;;57.27;34.67;;;7.80;1.00;;;;;;5111412;28;20450;-68
2022/03/19 00:12:13;;;;;;;56.23;34.30;;;7.80;82.30;;;;;;5111559;28;20486;-67
2022/03/19 00:14:40;;;;;;;54.30;32.00;;;7.80;12.60;;;;;;5111904;28;20515;-68
2022/03/19 00:17:10;;;;;;;50.03;33.70;;;7.80;1.00;;;;;;5112112;28;20996;-68
2022/03/19 00:19:37;;;;;;;47.77;31.80;;;7.70;99.90;;;;;;5111502;28;20512;-69
2022/03/19 00:22:04;;;;;;;51.40;34.60;;;7.70;56.90;;;;;;5111549;28;20483;-69
2022/03/19 00:24:31;;;;;;;51.47;33.60;;;7.70;1.00;;;;;;5110896;28;20546;-70
2022/03/19 00:26:58;;;;;;;50.20;31.97;;;7.80;1.00;;;;;;5111780;28;20475;-68
2022/03/19 00:29:25;;;;;;;49.60;33.17;;;7.70;1.00;;;;;;5111948;28;20527;-67
2022/03/19 00:31:52;;;;;;;51.67;32.87;;;7.60;1.00;;;;;;5111201;28;20921;-68
2022/03/19 00:34:21;;;;;;;48.00;33.40;;;7.70;1.00;;;;;;5111644;28;20535;-68
2022/03/19 00:36:49;;;;;;;54.17;33.87;;;7.70;1.00;;;;;;5110829;28;20440;-68
2022/03/19 00:39:16;;;;;;;55.90;35.03;;;7.60;1.00;;;;;;5112118;28;20457;-68
2022/03/19 00:41:43;;;;;;;54.90;34.30;;;7.70;1.00;;;;;;5110698;28;20479;-68
2022/03/19 00:44:10;;;;;;;53.77;33.10;;;7.60;1.00;;;;;;5111992;28;20444;-69
2022/03/19 00:46:37;;;;;;;57.50;37.10;;;7.60;1.00;;;;;;5111410;28;20523;-68
2022/03/19 00:49:04;;;;;;;55.60;35.03;;;7.70;1.00;;;;;;5111850;28;20508;-68
2022/03/19 00:51:36;;;;;;;52.10;33.03;;;7.60;1.00;;;;;;5110889;28;20494;-68
2022/03/19 00:54:03;;;;;;;49.00;31.53;;;7.60;99.90;;;;;;5111303;28;20455;-67
2022/03/19 00:56:30;;;;;;;50.57;33.20;;;7.50;1.00;;;;;;5110700;28;20523;-68
2022/03/19 00:58:57;;;;;;;50.10;32.07;;;7.60;2.20;;;;;;5111616;28;20447;-68
2022/03/19 01:01:24;;;;;;;51.70;32.83;;;7.50;1.00;;;;;;5111370;28;20479;-68
2022/03/19 01:03:51;;;;;;;58.00;34.50;;;7.60;1.00;;;;;;5110756;28;20535;-68
2022/03/19 01:06:18;;;;;;;52.50;32.00;;;7.50;99.90;;;;;;5111625;28;20450;-68
2022/03/19 01:08:46;;;;;;;48.80;32.67;;;7.60;1.00;;;;;;5110730;28;20894;-68
2022/03/19 01:11:13;;;;;;;49.10;29.97;;;7.60;99.90;;;;;;5111278;28;20451;-69
2022/03/19 01:13:40;;;;;;;42.93;30.23;;;7.60;80.80;;;;;;5109978;28;20951;-69
2022/03/19 01:16:07;;;;;;;53.40;32.60;;;7.50;98.90;;;;;;5110854;28;20931;-69
2022/03/19 01:18:34;;;;;;;50.83;30.80;;;7.50;1.00;;;;;;5110556;28;20451;-69
2022/03/19 01:21:01;;;;;;;53.07;33.70;;;7.60;26.80;;;;;;5111119;28;20518;-69
2022/03/19 01:23:28;;;;;;;47.20;31.40;;;7.50;1.00;;;;;;5096410;28;20501;-69
2022/03/19 01:25:56;;;;;;;51.23;33.13;;;7.50;1.00;;;;;;5111276;28;20479;-69
2022/03/19 01:28:23;;;;;;;46.17;30.70;;;7.50;99.90;;;;;;5111670;28;20536;-69
2022/03/19 01:30:50;;;;;;;48.90;31.03;;;7.60;1.00;;;;;;5110358;28;20940;-69
2022/03/19 01:33:17;;;;;;;45.43;31.07;;;7.50;99.90;;;;;;5111021;28;20491;-69
2022/03/19 01:35:44;;;;;;;45.17;29.00;;;7.60;99.90;;;;;;5110154;28;20526;-69
2022/03/19 01:38:11;;;;;;;46.23;31.57;;;7.60;99.90;;;;;;5114031;28;20459;-69
2022/03/19 01:40:38;;;;;;;48.07;30.17;;;7.60;99.90;;;;;;5114034;28;20511;-68
2022/03/19 01:43:06;;;;;;;52.97;33.27;;;7.60;99.90;;;;;;5115173;28;20443;-68
2022/03/19 01:45:33;;;;;;;48.80;30.70;;;7.60;99.90;;;;;;5114487;28;20471;-68
2022/03/19 01:48:00;;;;;;;43.97;28.53;;;7.60;99.90;;;;;;5114996;28;20937;-69
2022/03/19 01:50:27;;;;;;;48.73;31.80;;;7.60;99.90;;;;;;5114606;28;20443;-68
2022/03/19 01:52:55;;;;;;;46.90;31.47;;;7.50;99.90;;;;;;5115081;28;20530;-68
2022/03/19 01:55:24;;;;;;;40.00;28.77;;;7.40;99.90;;;;;;5114511;28;20467;-68
2022/03/19 01:57:53;;;;;;;42.40;30.27;;;7.60;99.90;;;;;;5114000;28;20546;-68
2022/03/19 02:00:22;;;;;;;50.53;31.47;;;7.50;99.90;;;;;;5114807;28;20484;-68
2022/03/19 02:02:51;;;;;;;47.53;31.30;;;7.60;47.80;;;;;;5113877;28;20535;-69
2022/03/19 02:05:19;;;;;;;44.97;30.13;;;7.50;99.90;;;;;;5114581;28;20880;-67
2022/03/19 02:07:48;;;;;;;42.90;29.70;;;7.50;99.90;;;;;;5114193;28;20447;-69
2022/03/19 02:10:16;;;;;;;46.07;31.83;;;7.40;99.90;;;;;;5114842;28;20842;-69
2022/03/19 02:12:44;;;;;;;46.83;30.20;;;7.40;99.90;;;;;;5113951;28;20448;-69
2022/03/19 02:15:12;;;;;;;43.60;29.43;;;7.50;99.90;;;;;;5114755;28;20479;-68
2022/03/19 02:17:40;;;;;;;44.40;30.40;;;7.50;99.90;;;;;;5114222;28;20526;-68
2022/03/19 02:20:08;;;;;;;46.67;30.30;;;7.50;35.70;;;;;;5109886;28;20443;-68
2022/03/19 02:22:36;;;;;;;43.37;31.10;;;7.50;6.80;;;;;;5113730;28;20444;-69
2022/03/19 02:27:50;;;;;;;41.47;28.67;;;7.40;1.00;;;;;;5113900;28;20581;-68
2022/03/19 02:30:17;;;;;;;45.37;29.53;;;7.50;1.00;;;;;;5114326;28;20609;-68
2022/03/19 02:32:49;;;;;;;48.20;28.93;;;7.40;1.00;;;;;;5113295;28;20507;-68
2022/03/19 02:35:16;;;;;;;44.80;29.20;;;7.50;1.00;;;;;;5114145;28;20550;-68
2022/03/19 02:37:45;;;;;;;46.37;29.60;;;7.40;1.00;;;;;;5113548;28;20447;-69
2022/03/19 02:40:15;;;;;;;45.33;29.80;;;7.40;1.00;;;;;;5114072;28;20455;-69
2022/03/19 02:42:42;;;;;;;45.23;30.20;;;7.40;1.00;;;;;;5113212;28;20486;-68
2022/03/19 02:45:10;;;;;;;44.67;27.77;;;7.30;1.00;;;;;;5114601;28;20866;-68
2022/03/19 02:47:56;;;;;;;42.73;29.83;;;7.40;1.00;;;;;;5113622;28;20550;-68
2022/03/19 02:50:24;;;;;;;44.40;30.13;;;7.30;1.00;;;;;;5113950;28;20842;-68
2022/03/19 02:52:52;;;;;;;44.97;29.57;;;7.30;1.00;;;;;;5113916;28;20451;-68
2022/03/19 02:55:20;;;;;;;41.60;29.53;;;7.20;99.90;;;;;;5113772;28;20599;-68
2022/03/19 02:57:47;;;;;;;46.07;30.43;;;7.30;1.00;;;;;;5113053;28;20479;-68
2022/03/19 03:00:15;;;;;;;47.73;30.87;;;7.30;1.00;;;;;;5113894;28;20846;-68
2022/03/19 03:02:42;;;;;;;47.90;29.53;;;7.30;1.00;;;;;;5112841;28;20450;-69
2022/03/19 03:05:12;;;;;;;45.40;30.50;;;7.20;1.00;;;;;;5113705;28;20436;-69
2022/03/19 03:07:39;;;;;;;41.60;28.63;;;7.10;1.00;;;;;;5113451;28;20445;-69
2022/03/19 03:10:07;;;;;;;41.17;27.63;;;7.10;1.00;;;;;;5113432;28;20452;-69
2022/03/19 03:12:36;;;;;;;47.90;31.57;;;7.20;1.00;;;;;;5112037;28;20994;-68
2022/03/19 03:15:03;;;;;;;48.30;29.17;;;7.20;1.00;;;;;;5113503;28;20497;-69
2022/03/19 03:17:30;;;;;;;48.03;31.63;;;7.10;1.00;;;;;;5112951;28;20452;-69
2022/03/19 03:19:57;;;;;;;45.97;29.53;;;7.20;1.00;;;;;;5112989;28;20454;-69
2022/03/19 03:22:24;;;;;;;40.83;29.20;;;7.20;1.00;;;;;;5112921;28;20574;-69
2022/03/19 03:24:51;;;;;;;46.27;30.00;;;7.10;1.00;;;;;;5112214;28;20463;-68
2022/03/19 03:27:18;;;;;;;43.10;29.37;;;7.10;1.00;;;;;;5113434;28;20489;-70
2022/03/19 03:29:46;;;;;;;40.00;27.50;;;7.20;1.00;;;;;;5112310;28;21035;-69
2022/03/19 03:32:13;;;;;;;41.47;28.07;;;7.10;1.00;;;;;;5113207;28;20443;-69
2022/03/19 03:34:41;;;;;;;45.40;27.63;;;7.00;1.00;;;;;;5112824;28;20475;-69
2022/03/19 03:37:09;;;;;;;39.80;27.33;;;7.20;1.00;;;;;;5113442;28;20450;-69
2022/03/19 03:39:36;;;;;;;50.00;29.70;;;7.20;1.00;;;;;;5112677;28;20546;-70
2022/03/19 03:42:03;;;;;;;40.77;30.13;;;7.20;1.00;;;;;;5112332;28;20511;-68
2022/03/19 03:44:30;;;;;;;45.27;28.00;;;7.20;1.00;;;;;;5112220;28;20455;-69
2022/03/19 03:46:58;;;;;;;42.03;26.70;;;7.10;1.00;;;;;;5112908;28;20479;-69
2022/03/19 03:49:26;;;;;;;38.80;28.10;;;7.00;1.00;;;;;;5112981;28;20543;-70
2022/03/19 03:51:53;;;;;;;48.40;29.67;;;6.90;18.60;;;;;;5112959;28;20462;-69
2022/03/19 03:54:20;;;;;;;43.97;30.13;;;6.80;99.90;;;;;;5098932;28;20548;-70
2022/03/19 03:56:47;;;;;;;40.97;27.63;;;6.80;99.90;;;;;;5112079;28;20459;-69
2022/03/19 03:59:14;;;;;;;45.03;29.97;;;7.00;99.90;;;;;;5098631;28;20475;-69
2022/03/19 04:01:41;;;;;;;41.20;27.33;;;6.90;99.90;;;;;;5111348;28;20587;-68
2022/03/19 04:04:09;;;;;;;45.87;28.33;;;6.90;99.90;;;;;;5112523;28;20475;-68
2022/03/19 04:06:36;;;;;;;41.90;27.67;;;6.80;1.00;;;;;;5111164;28;20931;-68
2022/03/19 04:09:03;;;;;;;41.90;27.20;;;7.00;1.00;;;;;;5112791;28;21279;-68
2022/03/19 04:11:30;;;;;;;50.00;28.03;;;7.00;34.30;;;;;;5111456;28;20476;-69
2022/03/19 04:13:59;;;;;;;41.40;28.43;;;7.00;1.00;;;;;;5112410;28;20530;-68
2022/03/19 04:16:27;;;;;;;43.27;28.40;;;7.00;1.00;;;;;;5111884;28;21015;-68
2022/03/19 04:18:54;;;;;;;43.70;27.53;;;6.90;1.00;;;;;;5112391;28;20448;-68
2022/03/19 04:21:22;;;;;;;48.13;29.73;;;6.90;1.00;;;;;;5111728;28;20574;-68
2022/03/19 04:23:49;;;;;;;42.70;27.93;;;6.90;1.00;;;;;;5111795;28;20644;-68
2022/03/19 04:26:16;;;;;;;48.33;30.50;;;6.80;1.00;;;;;;5112085;28;20512;-68
2022/03/19 04:28:43;;;;;;;40.97;25.87;;;6.90;1.00;;;;;;5111321;28;20513;-68
2022/03/19 04:31:10;;;;;;;45.70;28.40;;;6.90;1.00;;;;;;5111878;28;20483;-68
2022/03/19 04:33:37;;;;;;;42.00;26.77;;;6.90;1.00;;;;;;5111230;28;20450;-68
2022/03/19 04:38:50;;;;;;;40.27;26.50;;;6.90;1.00;;;;;;5111209;28;20439;-69
2022/03/19 04:41:17;;;;;;;42.43;27.20;;;7.10;1.00;;;;;;5110977;28;20576;-69
2022/03/19 04:43:44;;;;;;;42.17;28.00;;;6.90;1.00;;;;;;5110811;28;20444;-69
2022/03/19 04:46:10;;;;;;;40.67;26.97;;;7.00;1.00;;;;;;5111469;28;20447;-69
2022/03/19 04:48:37;;;;;;;46.93;28.37;;;7.00;1.00;;;;;;5110544;28;20924;-69
2022/03/19 04:51:04;;;;;;;41.20;28.20;;;6.90;1.00;;;;;;5111663;28;20451;-69
2022/03/19 04:53:31;;;;;;;45.20;26.57;;;6.90;1.00;;;;;;5110584;28;21067;-69
2022/03/19 04:56:00;;;;;;;40.90;27.47;;;7.00;1.00;;;;;;5111397;28;20463;-69
2022/03/19 04:58:27;;;;;;;41.37;27.30;;;6.90;1.00;;;;;;5111307;28;20440;-69
2022/03/19 05:00:54;;;;;;;41.60;28.00;;;6.90;1.00;;;;;;5111944;28;20570;-69
2022/03/19 05:03:20;;;;;;;37.97;26.37;;;6.90;1.00;;;;;;5110922;28;20454;-69
2022/03/19 05:05:47;;;;;;;38.73;26.10;;;6.90;1.00;;;;;;5111034;28;20450;-69
2022/03/19 05:08:14;;;;;;;41.60;27.13;;;6.80;1.00;;;;;;5111544;28;20815;-69
2022/03/19 05:13:27;;;;;;;49.17;26.80;;;6.80;1.00;;;;;;5110672;28;20926;-69
2022/03/19 05:15:54;;;;;;;40.87;26.83;;;6.80;1.00;;;;;;5111310;28;20538;-69
2022/03/19 05:18:21;;;;;;;39.60;26.90;;;6.80;1.00;;;;;;5111235;28;20870;-69
2022/03/19 05:20:48;;;;;;;47.17;27.67;;;6.80;1.00;;;;;;5110714;28;20446;-69
2022/03/19 05:23:15;;;;;;;42.43;28.37;;;6.80;99.90;;;;;;5110808;28;20480;-69
2022/03/19 05:25:42;;;;;;;45.03;27.97;;;6.80;1.00;;;;;;5110262;28;20542;-69
2022/03/19 05:28:09;;;;;;;39.07;25.60;;;6.60;1.00;;;;;;5110834;28;20440;-69
2022/03/19 05:30:38;;;;;;;38.93;25.90;;;6.70;1.00;;;;;;5110220;28;20470;-69
2022/03/19 05:33:05;;;;;;;41.80;27.23;;;6.80;1.00;;;;;;5110923;28;20459;-69
2022/03/19 05:35:33;;;;;;;38.43;26.20;;;6.70;99.90;;;;;;5110344;28;20800;-69
2022/03/19 05:38:00;;;;;;;37.93;25.80;;;6.60;99.90;;;;;;5110948;28;20516;-69
2022/03/19 05:40:28;;;;;;;40.90;24.97;;;6.60;99.90;;;;;;5110476;28;20462;-69
2022/03/19 05:42:54;;;;;;;41.53;26.20;;;6.50;99.90;;;;;;5097198;28;20491;-69
2022/03/19 05:45:21;;;;;;;46.17;28.00;;;6.70;99.90;;;;;;5111130;28;20456;-69
2022/03/19 05:47:50;;;;;;;41.30;25.40;;;6.70;99.90;;;;;;5110100;28;20448;-69
2022/03/19 05:50:17;;;;;;;36.67;24.77;;;6.80;99.90;;;;;;5110719;28;20820;-69
2022/03/19 05:52:46;;;;;;;46.00;27.50;;;6.70;99.90;;;;;;5110123;28;20512;-69
2022/03/19 05:55:14;;;;;;;46.50;25.73;;;6.80;99.90;;;;;;5110893;28;20475;-69
2022/03/19 05:57:41;;;;;;;43.50;26.80;;;6.90;99.90;;;;;;5110501;28;20460;-69
2022/03/19 06:00:10;;;;;;;38.97;26.40;;;6.60;99.90;;;;;;5110770;28;20432;-69
2022/03/19 06:02:40;;;;;;;41.20;28.00;;;6.70;99.90;;;;;;5109620;28;20512;-69
2022/03/19 06:05:09;;;;;;;34.80;25.20;;;6.70;99.90;;;;;;5110472;28;20432;-70
2022/03/19 06:07:36;;;;;;;39.27;24.70;;;6.70;99.90;;;;;;5110248;28;20873;-69
2022/03/19 06:10:04;;;;;;;39.60;26.23;;;6.80;99.90;;;;;;5110547;28;20444;-69
2022/03/19 06:12:31;;;;;;;39.77;25.50;;;6.70;99.90;;;;;;5109340;28;20443;-69
2022/03/19 06:14:58;;;;;;;45.00;27.27;;;6.70;99.90;;;;;;5110964;28;20528;-69
2022/03/19 06:17:26;;;;;;;38.80;26.83;;;6.70;99.90;;;;;;5110947;28;20476;-69
2022/03/19 06:19:54;;;;;;;37.67;25.17;;;6.60;99.90;;;;;;5111033;28;20988;-69
2022/03/19 06:22:22;;;;;;;36.00;23.50;;;6.70;99.90;;;;;;5110585;28;20475;-69
2022/03/19 06:24:49;;;;;;;35.30;25.10;;;6.70;99.90;;;;;;5113610;28;20459;-69
2022/03/19 06:27:16;;;;;;;39.50;26.47;;;6.60;99.90;;;;;;5114526;28;20876;-69
2022/03/19 06:29:43;;;;;;;41.47;27.93;;;6.70;99.90;;;;;;5113664;28;20448;-69
2022/03/19 06:32:10;;;;;;;46.97;28.43;;;6.60;99.90;;;;;;5114183;28;20486;-69
2022/03/19 06:34:37;;;;;;;43.73;28.10;;;6.60;99.90;;;;;;5113278;28;20932;-69
2022/03/19 06:37:22;;;;;;;36.27;25.60;;;6.80;99.90;;;;;;5114564;28;20483;-69
2022/03/19 06:39:54;;;;;;;46.00;28.10;;;6.90;99.90;;;;;;5113809;28;20800;-68
2022/03/19 06:42:22;;;;;;;37.87;24.20;;;6.90;99.90;;;;;;5113756;28;20575;-68
2022/03/19 06:44:49;;;;;;;46.63;25.80;;;6.80;99.90;;;;;;5113858;28;20579;-68
2022/03/19 06:47:16;;;;;;;43.47;26.77;;;6.80;99.90;;;;;;5113929;28;20448;-68
2022/03/19 06:49:43;;;;;;;50.00;26.10;;;6.90;99.90;;;;;;5112918;28;20523;-68
2022/03/19 06:52:11;;;;;;;38.30;26.07;;;6.90;99.90;;;;;;5113534;28;20455;-68
2022/03/19 06:54:37;;;;;;;37.60;25.27;;;6.80;99.90;;;;;;5112793;28;20479;-68
2022/03/19 06:57:06;;;;;;;38.17;24.67;;;7.00;99.90;;;;;;5113901;28;20800;-68
2022/03/19 06:59:33;;;;;;;43.53;25.40;;;7.10;94.70;;;;;;5113278;28;20469;-68
2022/03/19 07:02:00;;;;;;;41.50;24.70;;;7.10;55.20;;;;;;5113286;28;20562;-68
2022/03/19 07:04:27;;;;;;;36.33;24.67;;;7.20;1.90;;;;;;5113431;28;20451;-68
2022/03/19 07:06:54;;;;;;;36.23;25.90;;;7.00;1.00;;;;;;5114110;28;20773;-68
2022/03/19 07:09:21;;;;;;;41.80;26.07;;;7.20;1.00;;;;;;5114259;28;20491;-69
2022/03/19 07:11:48;;;;;;;38.83;24.40;;;7.30;1.00;;;;;;5112671;28;20443;-69
2022/03/19 07:14:17;;;;;;;39.03;25.67;;;7.10;1.00;;;;;;5113541;28;20494;-68
2022/03/19 07:16:44;;;;;;;40.97;26.60;;;7.30;1.00;;;;;;5112894;28;20523;-68
2022/03/19 07:19:12;;;;;;;35.10;25.07;;;7.20;1.00;;;;;;5113778;28;20444;-68
2022/03/19 07:21:38;;;;;;;47.57;25.83;;;7.30;1.00;;;;;;5112602;28;20467;-69
2022/03/19 07:24:06;;;;;;;40.77;24.83;;;7.30;1.00;;;;;;5113163;28;20517;-68
2022/03/19 07:26:33;;;;;;;36.50;26.33;;;7.30;1.00;;;;;;5112715;28;20538;-69
2022/03/19 07:29:00;;;;;;;42.90;25.57;;;7.40;1.00;;;;;;5113116;28;20916;-68
2022/03/19 07:31:29;;;;;;;38.37;25.90;;;7.40;1.00;;;;;;5112392;28;20513;-69
2022/03/19 07:33:56;;;;;;;39.90;26.03;;;7.50;1.00;;;;;;5112514;28;20452;-68
2022/03/19 07:36:23;;;;;;;33.80;22.70;;;7.50;1.00;;;;;;5112491;28;20444;-68
2022/03/19 07:38:50;;;;;;;42.57;25.30;;;7.60;1.00;;;;;;5112429;28;20447;-69
2022/03/19 07:44:03;;;;;;;38.07;24.47;;;7.70;1.00;;;;;;5112907;28;20504;-68
2022/03/19 07:46:31;;;;;;;35.17;24.40;;;7.70;1.00;;;;;;5112672;28;20500;-68
2022/03/19 07:48:59;;;;;;;35.33;24.00;;;7.80;1.00;;;;;;5112728;28;20539;-69
2022/03/19 07:51:26;;;;;;;37.33;23.40;;;7.90;1.00;;;;;;5112811;28;20538;-68
2022/03/19 07:53:53;;;;;;;30.20;21.80;;;7.90;1.00;;;;;;5112887;28;20544;-68
2022/03/19 07:56:20;;;;;;;32.73;21.23;;;7.80;1.00;;;;;;5112484;28;20649;-68
2022/03/19 07:58:50;;;;;;;36.10;23.63;;;7.80;1.00;;;;;;5112066;28;20520;-68
2022/03/19 08:01:17;;;;;;;32.93;22.00;;;7.80;1.00;;;;;;5112639;28;20444;-68
2022/03/19 08:03:47;;;;;;;34.77;22.20;;;7.80;1.00;;;;;;5111620;28;20491;-68
2022/03/19 08:06:14;;;;;;;28.70;20.93;;;7.80;99.90;;;;;;5112829;28;20816;-68
2022/03/19 08:08:41;;;;;;;33.90;21.90;;;7.90;99.90;;;;;;5111621;28;20443;-68
2022/03/19 08:11:08;;;;;;;30.40;20.40;;;7.90;99.90;;;;;;5111893;28;20893;-68
2022/03/19 08:13:36;;;;;;;36.03;22.37;;;8.10;99.90;;;;;;5111218;28;20958;-67
2022/03/19 08:16:03;;;;;;;32.30;22.10;;;8.10;99.90;;;;;;5112182;28;20520;-68
2022/03/19 08:18:30;;;;;;;34.80;22.77;;;8.20;99.90;;;;;;5111663;28;20458;-70
2022/03/19 08:21:00;;;;;;;37.27;20.97;;;8.20;99.90;;;;;;5112119;28;20496;-69
2022/03/19 08:23:26;;;;;;;29.40;19.60;;;8.20;99.90;;;;;;5111753;28;20475;-69
2022/03/19 08:25:53;;;;;;;34.00;20.20;;;8.30;99.90;;;;;;5112246;28;20542;-68
2022/03/19 08:28:20;;;;;;;31.83;19.93;;;8.30;99.90;;;;;;5112180;28;20455;-69
2022/03/19 08:30:47;;;;;;;27.30;20.00;;;8.50;99.90;;;;;;5111470;28;21460;-68
2022/03/19 08:33:14;;;;;;;29.40;19.27;;;8.50;99.90;;;;;;5111997;28;20479;-70
2022/03/19 08:35:41;;;;;;;28.73;20.40;;;8.50;99.90;;;;;;5111651;28;20447;-68
2022/03/19 08:40:54;;;;;;;28.87;19.63;;;8.70;99.90;;;;;;5111608;28;20431;-69
2022/03/19 08:43:21;;;;;;;26.67;17.83;;;8.80;99.90;;;;;;5111724;28;20512;-69
2022/03/19 08:45:48;;;;;;;28.13;20.50;;;8.80;99.90;;;;;;5111099;28;20865;-69
2022/03/19 08:48:17;;;;;;;30.20;19.47;;;8.90;99.90;;;;;;5111905;28;20858;-69
2022/03/19 08:50:44;;;;;;;23.63;17.43;;;8.90;99.90;;;;;;5110876;28;20475;-69
2022/03/19 08:53:13;;;;;;;28.47;18.70;;;8.90;99.90;;;;;;5111629;28;20454;-69
2022/03/19 08:55:40;;;;;;;26.30;18.10;;;9.00;99.90;;;;;;5110470;28;20471;-68
2022/03/19 08:58:07;;;;;;;29.73;17.67;;;9.10;99.90;;;;;;5111286;28;20519;-68
2022/03/19 09:00:34;;;;;;;25.43;17.70;;;9.30;99.90;;;;;;5110715;28;20950;-68
2022/03/19 09:03:01;;;;;;;25.20;16.67;;;9.30;99.90;;;;;;5111463;28;20484;-68
2022/03/19 09:05:28;;;;;;;27.37;18.10;;;9.30;99.90;;;;;;5110818;28;20935;-69
2022/03/19 09:07:55;;;;;;;25.10;16.60;;;9.30;99.90;;;;;;5111452;28;20490;-68
2022/03/19 09:10:23;;;;;;;33.87;17.03;;;9.30;99.90;;;;;;5111681;28;20446;-69
2022/03/19 09:12:50;;;;;;;24.73;17.37;;;9.40;99.90;;;;;;5110317;28;20455;-69
2022/03/19 09:15:17;;;;;;;29.93;18.57;;;9.40;99.90;;;;;;5111426;28;20475;-69
2022/03/19 09:17:44;;;;;;;24.43;18.43;;;9.40;99.90;;;;;;5110541;28;20939;-69
2022/03/19 09:20:12;;;;;;;24.07;17.93;;;9.40;99.90;;;;;;5111002;28;20537;-69
2022/03/19 09:22:39;;;;;;;32.43;18.13;;;9.50;99.90;;;;;;5109999;28;20471;-68
2022/03/19 09:25:07;;;;;;;29.03;17.83;;;9.60;99.90;;;;;;5110913;28;20947;-68
2022/03/19 09:27:39;;;;;;;25.60;17.10;;;9.60;99.90;;;;;;5110393;28;20539;-68
2022/03/19 09:30:07;;;;;;;23.30;17.60;;;9.60;99.90;;;;;;5111284;28;20820;-69
2022/03/19 09:32:35;;;;;;;25.43;18.77;;;9.80;99.90;;;;;;5110031;28;20543;-68
2022/03/19 09:35:03;;;;;;;25.87;17.40;;;9.70;99.90;;;;;;5111093;28;20446;-68
2022/03/19 09:37:30;;;;;;;28.23;19.23;;;9.80;99.90;;;;;;5110627;28;20436;-68
2022/03/19 09:39:56;;;;;;;31.93;20.40;;;9.90;99.90;;;;;;5111234;28;20439;-69
2022/03/19 09:42:24;;;;;;;25.10;18.23;;;10.00;99.90;;;;;;5110464;28;20555;-68
2022/03/19 09:44:53;;;;;;;27.13;18.47;;;10.10;99.90;;;;;;5110901;28;20446;-69
2022/03/19 09:47:20;;;;;;;25.60;18.07;;;10.10;99.90;;;;;;5110720;28;20997;-69
2022/03/19 09:49:48;;;;;;;25.70;17.70;;;10.10;99.90;;;;;;5110231;28;20501;-69
2022/03/19 09:52:17;;;;;;;28.80;20.00;;;10.20;99.90;;;;;;5110760;28;20451;-68
2022/03/19 09:54:44;;;;;;;30.27;19.70;;;10.20;99.90;;;;;;5110459;28;20479;-69
2022/03/19 09:57:11;;;;;;;34.03;21.20;;;10.30;99.90;;;;;;5110846;28;20443;-68
2022/03/19 09:59:38;;;;;;;32.30;20.80;;;10.20;99.90;;;;;;5114118;28;20452;-69
2022/03/19 10:02:08;;;;;;;25.67;19.23;;;10.10;99.90;;;;;;5114761;28;20978;-69
2022/03/19 10:04:39;;;;;;;29.73;20.40;;;10.30;99.90;;;;;;5114295;28;20471;-69
2022/03/19 10:09:52;;;;;;;26.03;19.37;;;10.30;99.90;;;;;;5113872;28;20434;-70
2022/03/19 10:12:21;;;;;;;27.43;20.53;;;10.50;99.90;;;;;;5114002;28;20447;-68
2022/03/19 10:14:50;;;;;;;31.77;21.20;;;10.60;99.90;;;;;;5114039;28;20619;-69
2022/03/19 10:17:33;;;;;;;28.20;19.57;;;10.60;99.90;;;;;;5114652;28;20483;-68
2022/03/19 10:20:02;;;;;;;28.30;20.17;;;10.70;99.90;;;;;;5114347;28;20784;-68
2022/03/19 10:22:30;;;;;;;28.20;19.83;;;10.70;99.90;;;;;;5113561;28;20436;-69
2022/03/19 10:24:59;;;;;;;25.27;18.77;;;10.90;99.90;;;;;;5114553;28;20466;-69
2022/03/19 10:27:26;;;;;;;26.00;17.57;;;11.00;99.90;;;;;;5114562;28;20526;-69
2022/03/19 10:30:12;;;;;;;26.27;19.30;;;10.90;99.90;;;;;;5114727;28;20555;-70
2022/03/19 10:32:41;;;;;;;27.80;18.77;;;11.00;99.90;;;;;;5113506;28;20452;-69
2022/03/19 10:35:28;;;;;;;24.70;19.10;;;11.00;99.90;;;;;;5114555;28;20448;-69
2022/03/19 10:37:56;;;;;;;25.77;19.00;;;11.10;99.90;;;;;;5114551;28;20474;-69
2022/03/19 10:40:23;;;;;;;27.73;19.57;;;11.20;99.90;;;;;;5114602;28;20518;-69
2022/03/19 10:42:58;;;;;;;30.17;21.80;;;11.20;99.90;;;;;;5113150;28;20447;-69
2022/03/19 10:45:25;;;;;;;29.50;21.20;;;11.20;99.90;;;;;;5114305;28;20526;-69
2022/03/19 10:47:53;;;;;;;31.27;21.97;;;11.20;99.90;;;;;;5100540;28;20467;-69
2022/03/19 10:50:22;;;;;;;26.10;20.47;;;11.30;99.90;;;;;;5114061;28;20437;-70
2022/03/19 10:52:51;;;;;;;31.47;20.77;;;11.30;99.90;;;;;;5113144;28;20539;-69
2022/03/19 10:55:19;;;;;;;31.30;21.80;;;11.30;99.90;;;;;;5113627;28;20567;-69
2022/03/19 10:57:46;;;;;;;32.07;20.80;;;;;;;;;;5113144;28;20540;-69
2022/03/19 11:00:14;;;;;;;29.97;21.90;;;;;;;;;;5113952;28;20527;-70
2022/03/19 11:02:42;;;;;;;36.53;21.43;;;;;;;;;;5112480;28;20451;-70
2022/03/19 11:05:11;;;;;;;30.47;21.47;;;;;;;;;;5112579;28;20443;-70
2022/03/19 11:07:42;;;;;;;35.07;22.23;;;;;;;;;;5105566;28;20448;-69
2022/03/19 11:10:09;;;;;;;29.50;22.23;;;;;;;;;;5096142;28;20931;-69
2022/03/19 11:12:40;;;;;;;31.37;20.90;;;;;;;;;;5097518;28;20495;-69
2022/03/19 11:15:09;;;;;;;31.50;22.67;;;;;;;;;;5109217;28;20444;-69
2022/03/19 11:17:37;;;;;;;31.63;21.00;;;;;;;;;;5104996;28;20493;-67
2022/03/19 11:20:06;;;;;;;30.27;20.23;;;;;;;;;;5113028;28;20458;-67
2022/03/19 11:22:40;;;;;;;28.67;21.50;;;11.40;99.90;;;;;;5104564;28;20526;-69
2022/03/19 11:25:09;;;;;;;27.00;19.20;;;;;;;;;;5108325;28;20596;-69
2022/03/19 11:27:37;;;;;;;25.40;19.07;;;;;;;;;;5092828;28;20506;-70
2022/03/19 11:30:05;;;;;;;23.60;17.53;;;;;;;;;;5101626;28;20488;-69
2022/03/19 11:32:33;;;;;;;25.30;17.20;;;;;;;;;;5093771;28;20449;-70
2022/03/19 11:35:00;;;;;;;21.97;16.10;;;;;;;;;;5113388;28;20440;-69
2022/03/19 11:37:48;;;;;;;22.80;14.33;;;;;;;;;;5112714;28;20459;-68
2022/03/19 11:40:29;;;;;;;17.70;14.10;;;;;;;;;;5113146;28;20781;-69
2022/03/19 11:42:57;;;;;;;17.13;12.40;;;;;;;;;;5105848;28;20531;-69
2022/03/19 11:45:25;;;;;;;20.93;12.67;;;;;;;;;;5104797;28;20452;-69
2022/03/19 11:47:52;;;;;;;16.83;12.00;;;;;;;;;;5100382;28;20469;-69
2022/03/19 11:50:20;;;;;;;16.70;11.60;;;;;;;;;;5112418;28;20444;-69
2022/03/19 11:53:05;;;;;;;15.93;12.60;;;;;;;;;;5111907;28;20547;-68
2022/03/19 11:55:39;;;;;;;16.30;12.07;;;;;;;;;;5103011;28;20491;-68
2022/03/19 11:58:10;;;;;;;17.67;10.87;;;;;;;;;;5101787;28;20433;-68
2022/03/19 12:00:41;;;;;;;14.67;10.97;;;;;;;;;;5101585;28;20530;-68
2022/03/19 12:03:13;;;;;;;14.53;10.60;;;;;;;;;;5097782;28;21006;-68
2022/03/19 12:05:41;;;;;;;15.70;11.63;;;;;;;;;;5098739;28;20432;-69
2022/03/19 12:08:10;;;;;;;15.23;10.80;;;;;;;;;;5112120;28;20450;-69
2022/03/19 12:10:54;;;;;;;15.23;9.57;;;;;;;;;;5111297;28;20845;-70
2022/03/19 12:13:47;;;;;;;14.87;9.57;;;;;;;;;;5111645;28;20444;-69
2022/03/19 12:16:16;;;;;;;13.60;8.80;;;;;;;;;;5111837;28;21085;-69
2022/03/19 12:18:44;;;;;;;11.87;9.63;;;;;;;;;;5111226;28;20456;-69
2022/03/19 12:21:23;;;;;;;12.37;8.83;;;;;;;;;;5111425;28;20497;-69
2022/03/19 12:23:55;;;;;;;14.70;9.63;;;;;;;;;;5110865;28;20581;-69
2022/03/19 12:26:25;;;;;;;11.70;9.13;;;;;;;;;;5112313;28;20448;-69
2022/03/19 12:28:59;;;;;;;12.60;8.80;;;;;;;;;;5111002;28;20448;-69
2022/03/19 12:31:31;;;;;;;13.90;9.50;;;;;;;;;;5112362;28;20446;-69
2022/03/19 12:33:58;;;;;;;11.03;8.70;;;;;;;;;;5111549;28;20435;-68
2022/03/19 12:36:26;;;;;;;11.83;8.10;;;;;;;;;;5111875;28;20452;-69
2022/03/19 12:38:53;;;;;;;15.10;8.40;;;;;;;;;;5112410;28;20507;-69
2022/03/19 12:41:28;;;;;;;15.40;9.53;;;;;;;;;;5111822;28;20900;-69
2022/03/19 12:43:58;;;;;;;12.10;8.27;;;;;;;;;;5111511;28;20477;-69
2022/03/19 12:46:26;;;;;;;11.97;9.53;;;;;;;;;;5112070;28;20790;-69
2022/03/19 12:48:53;;;;;;;9.93;8.23;;;;;;;;;;5111835;28;20479;-69
2022/03/19 12:51:24;;;;;;;15.40;9.90;;;;;;;;;;5111863;28;20483;-69
2022/03/19 12:53:51;;;;;;;14.37;9.10;;;;;;;;;;5110322;28;20941;-68
2022/03/19 12:56:20;;;;;;;15.50;8.53;;;;;;;;;;5111183;28;20475;-69
2022/03/19 12:58:48;;;;;;;12.57;7.67;;;;;;;;;;5110748;28;20470;-69
2022/03/19 13:01:18;;;;;;;11.90;8.63;;;;;;;;;;5111686;28;20489;-68
2022/03/19 13:03:46;;;;;;;10.53;7.20;;;;;;;;;;5109968;28;20591;-69
2022/03/19 13:06:16;;;;;;;10.17;7.03;;;;;;;;;;5111553;28;20436;-69
2022/03/19 13:08:47;;;;;;;10.07;6.80;;;;;;;;;;5110135;28;20440;-68
2022/03/19 13:11:14;;;;;;;12.00;7.30;;;;;;;;;;5111013;28;20493;-70
2022/03/19 13:13:41;;;;;;;10.73;7.87;;;;;;;;;;5097194;28;20530;-68
2022/03/19 13:16:09;;;;;;;11.70;8.30;;;;;;;;;;5111570;28;20798;-68
2022/03/19 13:18:40;;;;;;;10.37;7.90;;;;;;;;;;5110925;28;20440;-68
2022/03/19 13:21:08;;;;;;;15.43;9.17;;;;;;;;;;5110939;28;20927;-69